NKS1140 SEGU-KFLL
Flight info
| Callsign | NKS1140 |
|---|---|
| Flight time | N/A |
| Altitude | 36000 |
| Route | UGUPI UL780 BUXOS/N0450F380 UL780 TBG UL465 GCM UG448 IKBIX BHHIA3 |
| Aircraft | A20N/M-SDE2E3FGHIRWXY/LB1 |
Departure
| Time | N/A |
|---|---|
| Airport | José Joaquín de Olmedo International Airport (SEGU) |
Arrival
| Time | 2026-05-03 20:15 |
|---|---|
| Airport | Fort Lauderdale Hollywood International Airport (KFLL) |
| Time | Latitude | Longitude | Altitude | Speed | Heading |
|---|---|---|---|---|---|
| 2026-05-03 20:15 | 26.06720 | -80.13716 | 68 ft | 11 kts | 338° |
| 2026-05-03 20:15 | 26.06744 | -80.13800 | 66 ft | 14 kts | 271° |
| 2026-05-03 20:15 | 26.06743 | -80.13911 | 66 ft | 13 kts | 270° |
| 2026-05-03 20:15 | 26.06733 | -80.14011 | 74 ft | 15 kts | 248° |
| 2026-05-03 20:16 | 26.06683 | -80.14135 | 57 ft | 24 kts | 259° |
| 2026-05-03 20:16 | 26.06676 | -80.14344 | 49 ft | 29 kts | 269° |
| 2026-05-03 20:16 | 26.06676 | -80.14545 | 42 ft | 20 kts | 270° |
| 2026-05-03 20:16 | 26.06676 | -80.14700 | 30 ft | 18 kts | 271° |
| 2026-05-03 20:17 | 26.06678 | -80.14816 | 21 ft | 11 kts | 273° |
| 2026-05-03 20:17 | 26.06685 | -80.14869 | 21 ft | 9 kts | 284° |
| 2026-05-03 20:17 | 26.06714 | -80.14924 | 17 ft | 8 kts | 332° |
| 2026-05-03 20:17 | 26.06765 | -80.14887 | 15 ft | 12 kts | 78° |
| 2026-05-03 20:18 | 26.06766 | -80.14787 | 15 ft | 14 kts | 91° |
| 2026-05-03 20:18 | 26.06766 | -80.14670 | 15 ft | 16 kts | 90° |
| 2026-05-03 20:18 | 26.06765 | -80.14547 | 15 ft | 17 kts | 87° |
| 2026-05-03 20:18 | 26.06771 | -80.14411 | 15 ft | 17 kts | 92° |
| 2026-05-03 20:19 | 26.06769 | -80.14327 | 15 ft | 6 kts | 91° |
| 2026-05-03 20:19 | 26.06772 | -80.14277 | 17 ft | 8 kts | 83° |
| 2026-05-03 20:19 | 26.06797 | -80.14211 | 15 ft | 11 kts | 66° |
| 2026-05-03 20:19 | 26.06812 | -80.14164 | 15 ft | 1 kts | 71° |
| 2026-05-03 20:20 | 26.06818 | -80.14146 | 16 ft | 4 kts | 66° |
| 2026-05-03 20:20 | 26.06845 | -80.14136 | 15 ft | 5 kts | 343° |
| 2026-05-03 20:20 | 26.06854 | -80.14142 | 15 ft | 1 kts | 328° |
| 2026-05-03 20:20 | 26.06856 | -80.14144 | 15 ft | 0 kts | 328° |